View Sortable Currents For Network
ASOSAWOSCoCoRaHSCOOPDCPISUSM
SchoolNetOtherSCANMy FavoritesBy StateRWIS
RWIS SurfaceRWIS TrafficRWIS SoilBy NWS WFO

Current AWOS Conditions

** This page will automatically refresh every five minutes.
Sorted by: (1 hr Rainfall)     Click on a column to sort it.

Add ID: Name: Ob Time   Wind [knots]   Rainfall
Temp (Hi / Lo) DewP Feels RH% Dir Speed Peak Gust
@ Time
Alti Vsby Hour Today
FODFORT DODGE02:12 AM 64(64/63) 63 97 0 03 @ 12:10 AM 30.09 6 0
OXVKnoxville02:15 AM 68(70/66) 66 70 93 340 45 @ 01:55 AM 30.04 4 0
RDKRED OAK02:15 AM 66(68/66) 66 68 100 350 33 @ 02:15 AM 30.09 8 0
SHLSHELDON02:15 AM 59(63/59) 59 100 0 00 @ 06:00 PM 30.11 5 0
ORCOrange City02:15 AM 64(70/64) 63 97 0 03 @ 12:15 AM 30.13 10 0
OLZOELWEIN02:15 AM 66(68/66) 66 68 100 40 35 @ 12:35 AM 30.07 9 0
FSWFORT MADISON02:15 AM 68(70/66) 68 100 0 00 @ 06:00 PM 30.03 7 0
LRJLE MARS02:15 AM 63(64/63) 63 100 0 00 @ 06:00 PM 30.12 0.5 0
BNWBOONE MUNI02:15 AM 66(68/66) 64 67 93 330 56 @ 12:35 AM 30.07 8 0
MUTMUSCATINE02:15 AM 68(70/68) 66 93 0 03 @ 01:35 AM 30.02 10 0
SLBStorm Lake02:15 AM 63(64/63) 63 64 100 10 45 @ 12:35 AM 30.11 9 0
CBFCOUNCIL BLUFFS02:15 AM 68(70/68) 68 70 100 20 55 @ 01:15 AM 30.1 10 0
EBSWebster City02:15 AM 63(64/63) 63 100 @ 06:00 PM 30.06 7 0
AWGWASHINGTON02:15 AM 66(68/66) 66 100 0 03 @ 01:35 AM 30.04 4 0
MPZMOUNT PLEASANT02:15 AM 66(68/66) 66 100 0 03 @ 01:15 AM 30.03 7 0
HPTHampton02:15 AM 64(64/64) 64 66 100 320 34 @ 12:35 AM 30.08 10 0
CINCARROLL02:15 AM 61(64/61) 61 62 100 280 44 @ 12:55 AM 30.09 9 0
AIOATLANTIC02:15 AM 64(66/64) 64 100 0 04 @ 01:15 AM 30.09 9 0
ADUAUDUBON02:15 AM 63(66/63) 61 93 0 00 @ 06:00 PM 30.1 10 0
CSQCRESTON02:15 AM 64(70/64) 63 65 97 350 55 @ 12:15 AM 30.09 10 0
FXYForest City02:15 AM 61(64/61) 61 100 0 00 @ 06:00 PM 30.1 3 0
FFLFAIRFIELD02:15 AM 68(68/68) 66 70 93 320 55 @ 01:15 AM 30.03 6 0
ICLCLARINDA02:15 AM 63(66/63) 63 100 0 03 @ 01:35 AM 30.1 0.25 0
DNSDENISON02:15 AM 63(64/63) 63 100 0 00 @ 06:00 PM 30.12 2 0
HNRHARLAN02:15 AM 64(66/64) 64 100 0 04 @ 12:55 AM 30.11 9 0
IFAIowa Falls02:15 AM 65(68/65) 64 67 97 310 34 @ 12:35 AM 30.09 5 0
GGIGrinnell02:15 AM 67(69/67) 66 69 97 330 35 @ 12:15 AM 30.07 10 0
EOKKEOKUK MUNI02:15 AM 70(70/70) 68 72 93 330 44 @ 12:15 AM 30.02 10 0
I75Osceola02:15 AM 68(71/68) 65 69 90 310 34 @ 12:15 AM 30.07 10 0
PROPerry02:15 AM 63(67/63) 63 64 100 290 44 @ 12:15 AM 30.08 7 0
TVKCenterville02:15 AM 66(66/66) 66 100 0 00 @ 06:00 PM 30.07 10 0
PEAPELLA02:15 AM 69(70/69) 66 90 0 03 @ 01:55 AM 30.06 7 0
VTIVINTON02:15 AM 71(71/71) 70 97 0 03 @ 01:55 AM 30.05 5 0
OOAOskaloosa02:15 AM 66(67/66) 65 68 97 340 46 @ 12:35 AM 30.05 7 0
AXAALGONA02:15 AM 64(66/63) 64 66 100 330 44 @ 12:15 AM 30.1 6 0
CAVCLARION02:15 AM 63(64/63) 61 64 93 340 44 @ 02:15 AM 30.09 5 0
CNCCHARITON02:15 AM 66(70/66) 66 68 100 300 56 @ 01:15 AM 30.06 10 0
CWICLINTON01:56 AM 67(68/67) 66 69 97 20 57 @ 12:00 AM 30.03 5 0
MXOMONTICELLO MUNI02:15 AM 68(68/68) 68 100 0 03 @ 01:15 AM 30.04 3 0
DEHDECORAH02:15 AM 66(68/64) 64 67 93 330 33 @ 02:15 AM 30.06 9 0
SDASHENANDOAH MUNI02:15 AM 66(68/66) 66 100 0 00 @ 06:00 PM 30.09 5 0
IKVANKENY02:15 AM 70(72/70) 66 87 0 04 @ 01:35 AM 30.07 10 0
CCYCHARLES CITY02:15 AM 64(66/64) 63 65 97 360 46 @ 12:15 AM 30.07 10 0
TNUNEWTON MUNI02:15 AM 68(72/68) 66 93 0 06 @ 12:35 AM 30.06 10 0
IIBINDEPENDENCE02:15 AM 67(69/67) 66 69 97 330 33 @ 12:55 AM 30.06 1.25 0
CKPCherokee02:15 AM 61(64/61) 61 100 0 00 @ 06:00 PM 30.12 0.5 0